Goldboro, Canada
Current Conditions -  °F | °C
As of 10:00 AM on Thursday 30 Oct 2014 (Local Time) from CYPD Reporting Station
Overcast Overcast  
Wind Chill: 54°   Ceiling: 2000
Heat Index: 54°   Visibility: 9mi
Dew Point: 46°   Wind: 9mph
Humidity: 77%   Direction: 300°WNW
Pressure: 29.75"   Gusts: NA
Location:  45.18°N, 61.65°W
Report Text: CYPD 301300Z AUTO 30008KT 9SM OVC020 12/08 A2975 RMK SLP077
Loading
Personal Weather Stations






























Interactive Weather Map
Tropical Storm Tracking
New forecast layout! Learn more

10-Day Weather Forecast

Advertisements
Track Severe Weather on mobile